Details From TXKF - Bermuda Intl
To KWWD - CAPE MAY CO
Flight Number -
Tags decoded
Created
Modified
Stats Distance 648 nm / 1,201 km
Max Altitude 0 ft / 0 m
Waypoints 5
Social Downloads 2
Likes 0
Share VATSIM

Download

Looking for another format? Having issues loading an existing format? Contact us
Advertisement - Login to hide

Notes

Requested: TXKF B24 GABES CHAMP LYNUS SIE KWWD Unmatched points: B24

Route

TXKF GABES LYNUS SIE KWWD

ID Type Via Altitude Latitude Longitude Leg Dist Tot Dist Heading (true) Name
O TXKF APT - 0 ft / 0 m 32.36404˚ -64.67868˚ - 0 nm - Bermuda Intl
GABES FIX - 0 ft / 0 m 34.00000˚ -67.68333˚ 180 nm 180 nm 304° / 302° -
LYNUS FIX - 0 ft / 0 m 38.01469˚ -72.65402˚ 341 nm 521 nm 316° / 313° -
SIE VOR - 0 ft / 0 m 39.09550˚ -74.80033˚ 119 nm 641 nm 303° / 302° SEA ISLE VORTAC
O KWWD APT - 0 ft / 0 m 39.00851˚ -74.90858˚ 7 nm 648 nm 224° / 224° CAPE MAY CO

Altitude Profile

Advertisement - Login to hide

Weather


0- 5 10 15 20 25 30 35+ Temperature / ° C

Clouds and Precipitation
Forecast for 2017-12-16 06:00 UTC. Updated 31 minutes ago

Ground ~20,000 ft ~40,000 ft Winds

TXKF

Details ICAO TXKF (BDA)
Name Bermuda Intl
Region Bermuda
Timezone Unknown (UTC+0.0)
Stats Elevation 12 ft / 4 m (AMSL)
Location 32.364038° -64.678684°
Runways 1
Magnetic Variation 14.784° W

METAR

TXKF 160055Z 22013KT 9999 VCSH SCT028 SCT065 BKN180 BKN300 22/17 Q1018

Decode

TAF

TAF TXKF 152332Z 1600/1624 23015KT 9999 VCSH FEW030 SCT180 BKN300 TEMPO 1606/1612 26025G35KT PROB40 TEMPO 1609/1618 3200 SHRA BKN020 BECMG 1612/1616 31018KT

Decode

Departure Runways

ID Width Length Bearing (true) Bearing (mag) Surface Threshold Offset Overrun Length
12 150 ft / 46 m 9,701 ft / 2,957 m 101.50° 116.28° Asphalt 0 ft / 0 m 553 ft / 169 m
30 150 ft / 46 m 9,701 ft / 2,957 m 281.52° 296.30° Asphalt 0 ft / 0 m 207 ft / 63 m

KWWD

Details ICAO KWWD (WWD)
Name CAPE MAY CO
Region United States
Timezone America/New_York (UTC-5.0)
Stats Elevation 23 ft / 7 m (AMSL)
Location 39.008507° -74.908585°
Runways 2
Magnetic Variation 12.046° W

METAR

KWWD 160136Z AUTO 31008KT 10SM BKN008 BKN013 OVC041 M02/M03 A2997 RMK AO2 SNE0058 P0000 FZRANO

Decode

TAF

Not found

Destination Runways

ID Width Length Bearing (true) Bearing (mag) Surface Threshold Offset Overrun Length
01 151 ft / 46 m 5,010 ft / 1,527 m 359.61° 11.66° Asphalt 0 ft / 0 m 0 ft / 0 m
10 151 ft / 46 m 4,987 ft / 1,520 m 89.59° 101.64° Asphalt 0 ft / 0 m 0 ft / 0 m
19 151 ft / 46 m 5,010 ft / 1,527 m 179.61° 191.66° Asphalt 79 ft / 24 m 0 ft / 0 m
28 151 ft / 46 m 4,987 ft / 1,520 m 269.60° 281.65° Asphalt 0 ft / 0 m 0 ft / 0 m

Approach Navaids

Runway Type Ident Frequency Range Bearing (true) Bearing (mag) Slope Elevation
19 Localiser ICEJ 108.90 MHz 18 nm / 33 km 179.62° 191.67° - 21 ft / 6 m (AMSL)